This is the latest recevied weather packets stored in our database for station/object NW5W-12. If no packets are shown the sender has not sent any weather packets the latest 1 day(s).
| Time | Temp. | Humidity | Pressure | Rain* | Wind** | Luminosity | Snow |
|---|---|---|---|---|---|---|---|
| 1778037642 | 6.11° C | 75% | 1012.5 hPa | 0.51 mm | 1.79 m/s, 187° | - | - |
| 1778037342 | 6.11° C | 74% | 1012.5 hPa | 0.51 mm | 1.34 m/s, 181° | - | - |
| 1778037042 | 6.11° C | 75% | 1012.5 hPa | 0.51 mm | 0.45 m/s, 168° | - | - |
| 1778036742 | 6.11° C | 75% | 1012.5 hPa | 0.51 mm | 1.79 m/s, 178° | - | - |
| 1778036442 | 6.11° C | 75% | 1012.4 hPa | 0.51 mm | 0.45 m/s, 175° | - | - |
| 1778036142 | 6.67° C | 75% | 1012.4 hPa | 0.51 mm | 1.34 m/s, 168° | - | - |
| 1778035842 | 6.67° C | 76% | 1012.4 hPa | 0.51 mm | 0.45 m/s, 163° | - | - |
| 1778035542 | 6.67° C | 75% | 1012.3 hPa | 0.51 mm | 1.34 m/s, 175° | - | - |
| 1778035242 | 6.67° C | 75% | 1012.2 hPa | 0.51 mm | 0.89 m/s, 183° | - | - |
| 1778034942 | 6.67° C | 74% | 1012.2 hPa | 0.51 mm | 2.24 m/s, 188° | - | - |
| 1778034642 | 6.67° C | 73% | 1012.1 hPa | 0.51 mm | 1.79 m/s, 181° | - | - |
| 1778034342 | 7.22° C | 72% | 1012.1 hPa | 0.51 mm | 1.79 m/s, 172° | - | - |
| 1778034042 | 7.22° C | 70% | 1012.1 hPa | 0.51 mm | 1.79 m/s, 179° | - | - |
| 1778033742 | 7.22° C | 69% | 1012 hPa | 0.51 mm | 0.89 m/s, 158° | - | - |
| 1778033442 | 7.78° C | 68% | 1012 hPa | 0.51 mm | 1.79 m/s, 176° | - | - |
| 1778033142 | 7.78° C | 68% | 1012 hPa | 0.51 mm | 1.79 m/s, 195° | - | - |
| 1778032842 | 7.78° C | 67% | 1012 hPa | 0.51 mm | 2.24 m/s, 191° | - | - |
| 1778032542 | 8.33° C | 66% | 1012 hPa | 0.51 mm | 1.34 m/s, 190° | - | - |
| 1778032242 | 8.33° C | 65% | 1012 hPa | 0.51 mm | 1.34 m/s, 186° | - | - |
| 1778031942 | 8.33° C | 63% | 1012 hPa | 0.51 mm | 2.24 m/s, 203° | - | - |
| 1778031642 | 8.89° C | 63% | 1012 hPa | 0.51 mm | 1.79 m/s, 189° | - | - |
| 1778031342 | 8.89° C | 62% | 1011.9 hPa | 0.51 mm | 2.68 m/s, 204° | - | - |
| 1778031042 | 8.89° C | 61% | 1011.9 hPa | 0.51 mm | 2.24 m/s, 197° | - | - |
| 1778030742 | 9.44° C | 60% | 1011.9 hPa | 0.51 mm | 1.79 m/s, 208° | - | - |
| 1778030442 | 9.44° C | 59% | 1012 hPa | 0.51 mm | 1.79 m/s, 209° | - | - |
* Rain since midnight (hover to see other rain measurements)
** Current wind speed in m/s (hover to see current wind gust speed)